Time;durP1;ratioP1;P1;durP2;ratioP2;P2;SDS_P1;SDS_P2;PMS_P1;PMS_P2;Temp;Humidity;BMP_temperature;BMP_pressure;BME280_temperature;BME280_humidity;BME280_pressure;Samples;Min_cycle;Max_cycle;Signal;HPM_P1;HPM_P2
2023/01/11 00:00:00;;;;;;;8.30;5.60;;;;;;;;;;5020788;28;20076;-69
2023/01/11 00:02:26;;;;;;;8.90;5.47;;;;;;;;;;5020581;28;20058;-68
2023/01/11 00:04:51;;;;;;;8.48;5.90;;;;;;;;;;5021347;28;20064;-68
2023/01/11 00:07:17;;;;;;;9.02;5.57;;;;;;;;;;5021036;28;20471;-69
2023/01/11 00:09:43;;;;;;;9.30;5.57;;;;;;;;;;5021435;28;20060;-68
2023/01/11 00:12:11;;;;;;;9.48;5.50;;;;;;;;;;5019637;28;20049;-70
2023/01/11 00:14:36;;;;;;;10.52;5.20;;;;;;;;;;5021674;28;20486;-68
2023/01/11 00:17:01;;;;;;;8.93;4.90;;;;;;;;;;5020893;28;20068;-69
2023/01/11 00:19:27;;;;;;;13.98;4.97;;;;;;;;;;5020658;28;20046;-68
2023/01/11 00:21:52;;;;;;;8.63;5.68;;;;;;;;;;5019706;28;20077;-68
2023/01/11 00:24:18;;;;;;;8.60;4.72;;;;;;;;;;5021123;28;20483;-68
2023/01/11 00:26:43;;;;;;;8.80;5.47;;;;;;;;;;5020992;28;20149;-68
2023/01/11 00:29:08;;;;;;;9.27;5.28;;;;;;;;;;5020987;28;20053;-68
2023/01/11 00:31:34;;;;;;;7.63;4.85;;;;;;;;;;5019590;28;20145;-68
2023/01/11 00:33:59;;;;;;;7.03;5.15;;;;;;;;;;5019808;28;20049;-68
2023/01/11 00:36:24;;;;;;;9.18;4.50;;;;;;;;;;5021305;28;20041;-68
2023/01/11 00:38:52;;;;;;;5.53;3.95;;;;;;;;;;5020768;28;20073;-68
2023/01/11 00:49:33;;;;;;;7.03;4.15;;;;;;;;;;5019943;28;20069;-68
2023/01/11 00:51:58;;;;;;;10.63;5.10;;;;;;;;;;5020030;28;20050;-69
2023/01/11 00:54:24;;;;;;;6.28;4.07;;;;;;;;;;5019691;28;20038;-68
2023/01/11 00:56:49;;;;;;;8.68;4.28;;;;;;;;;;5024525;28;21044;-69
2023/01/11 00:59:14;;;;;;;4.63;3.28;;;;;;;;;;5019908;28;20055;-68
2023/01/11 01:01:40;;;;;;;6.22;3.60;;;;;;;;;;5019880;28;20068;-69
2023/01/11 01:04:05;;;;;;;5.10;2.60;;;;;;;;;;5020367;28;20053;-68
2023/01/11 01:06:31;;;;;;;3.25;2.45;;;;;;;;;;5018715;28;20518;-68
2023/01/11 01:08:57;;;;;;;6.65;4.32;;;;;;;;;;5020635;28;20041;-68
2023/01/11 01:11:22;;;;;;;9.95;4.40;;;;;;;;;;5019035;28;20057;-69
2023/01/11 01:16:32;;;;;;;6.65;4.47;;;;;;;;;;5018845;28;20045;-69
2023/01/11 01:18:58;;;;;;;9.27;5.13;;;;;;;;;;5020508;28;20702;-68
2023/01/11 01:21:25;;;;;;;9.20;5.68;;;;;;;;;;5018671;28;20046;-69
2023/01/11 01:23:51;;;;;;;10.80;5.30;;;;;;;;;;5019090;28;20064;-69
2023/01/11 01:26:16;;;;;;;8.90;5.25;;;;;;;;;;5018357;28;20100;-69
2023/01/11 01:28:42;;;;;;;10.80;4.97;;;;;;;;;;5018411;28;21063;-68
2023/01/11 01:31:07;;;;;;;7.40;5.43;;;;;;;;;;5016921;28;20045;-68
2023/01/11 01:33:33;;;;;;;7.88;4.90;;;;;;;;;;5017328;28;20072;-68
2023/01/11 01:36:00;;;;;;;8.05;4.72;;;;;;;;;;5033698;28;20060;-69
2023/01/11 01:38:26;;;;;;;11.02;5.10;;;;;;;;;;5019768;28;20172;-68
2023/01/11 01:40:52;;;;;;;11.57;5.35;;;;;;;;;;5020773;28;20093;-68
2023/01/11 01:43:17;;;;;;;10.60;4.07;;;;;;;;;;5018278;28;20232;-68
2023/01/11 01:45:43;;;;;;;5.57;3.00;;;;;;;;;;5035256;28;20131;-68
2023/01/11 01:48:11;;;;;;;5.70;3.72;;;;;;;;;;5019046;28;20053;-68
2023/01/11 01:50:47;;;;;;;5.47;3.45;;;;;;;;;;5019380;28;20049;-68
2023/01/11 01:53:18;;;;;;;6.85;4.45;;;;;;;;;;5018617;28;20061;-68
2023/01/11 01:55:50;;;;;;;6.60;3.90;;;;;;;;;;5019669;28;20080;-68
2023/01/11 01:58:19;;;;;;;9.40;4.32;;;;;;;;;;5018668;28;20529;-68
2023/01/11 02:00:45;;;;;;;5.53;3.67;;;;;;;;;;5019397;28;20111;-68
2023/01/11 02:03:16;;;;;;;7.00;4.43;;;;;;;;;;5019058;28;20075;-68
2023/01/11 02:05:41;;;;;;;6.68;4.00;;;;;;;;;;5020113;28;20049;-69
2023/01/11 02:08:15;;;;;;;6.53;4.05;;;;;;;;;;5019079;28;20053;-69
2023/01/11 02:10:41;;;;;;;7.68;4.32;;;;;;;;;;5019906;28;20068;-69
2023/01/11 02:13:09;;;;;;;7.82;4.10;;;;;;;;;;5017361;28;20041;-69
2023/01/11 02:15:35;;;;;;;6.53;3.63;;;;;;;;;;5018964;28;20458;-69
2023/01/11 02:18:01;;;;;;;7.63;3.92;;;;;;;;;;5035824;28;20053;-69
2023/01/11 02:20:51;;;;;;;6.50;3.95;;;;;;;;;;5022289;28;20857;-69
2023/01/11 02:24:02;;;;;;;5.47;2.22;;;;;;;;;;5021541;28;20110;-68
2023/01/11 02:26:46;;;;;;;4.68;3.22;;;;;;;;;;5023340;28;20461;-69
2023/01/11 02:29:49;;;;;;;4.97;3.55;;;;;;;;;;5022951;28;20064;-69
2023/01/11 02:32:32;;;;;;;5.75;3.25;;;;;;;;;;5041433;28;20049;-70
2023/01/11 02:35:10;;;;;;;7.25;3.47;;;;;;;;;;5023130;28;20588;-69
2023/01/11 02:38:04;;;;;;;9.68;3.72;;;;;;;;;;5024090;28;20057;-67
2023/01/11 02:40:47;;;;;;;6.93;4.03;;;;;;;;;;5023365;28;20095;-67
2023/01/11 02:46:16;;;;;;;3.97;2.92;;;;;;;;;;5022809;28;20053;-68
2023/01/11 02:48:50;;;;;;;5.70;3.08;;;;;;;;;;5023048;28;20060;-68
2023/01/11 02:51:33;;;;;;;9.13;4.10;;;;;;;;;;5021395;28;20049;-68
2023/01/11 02:54:04;;;;;;;;;;;;;;;;;;5022534;28;20087;-68
2023/01/11 02:56:35;;;;;;;4.43;3.65;;;;;;;;;;5022531;28;19931;-68
2023/01/11 02:59:01;;;;;;;4.03;3.28;;;;;;;;;;5022697;28;20091;-68
2023/01/11 03:01:27;;;;;;;5.28;3.55;;;;;;;;;;5021617;28;20038;-67
2023/01/11 03:03:52;;;;;;;5.43;3.42;;;;;;;;;;5021947;28;20422;-70
2023/01/11 03:06:20;;;;;;;6.97;3.22;;;;;;;;;;5023416;28;20053;-67
2023/01/11 03:09:20;;;;;;;3.67;2.50;;;;;;;;;;5021276;28;20037;-67
2023/01/11 03:15:01;;;;;;;8.25;3.38;;;;;;;;;;5021689;28;20084;-68
2023/01/11 03:17:36;;;;;;;6.00;3.30;;;;;;;;;;5021364;28;20103;-67
2023/01/11 03:20:26;;;;;;;5.30;3.20;;;;;;;;;;5022100;28;20605;-67
2023/01/11 03:23:20;;;;;;;3.95;2.28;;;;;;;;;;5021643;28;20049;-68
2023/01/11 03:26:01;;;;;;;1.30;1.20;;;;;;;;;;5050560;28;20045;-69
2023/01/11 03:28:38;;;;;;;4.43;2.92;;;;;;;;;;5020277;28;20052;-69
2023/01/11 03:31:12;;;;;;;6.10;3.70;;;;;;;;;;5036452;28;20138;-66
2023/01/11 03:33:53;;;;;;;6.55;3.33;;;;;;;;;;5020865;28;20053;-68
2023/01/11 03:36:30;;;;;;;3.75;3.28;;;;;;;;;;5036335;28;20057;-69
2023/01/11 03:39:14;;;;;;;5.45;3.67;;;;;;;;;;5021569;28;20063;-70
2023/01/11 03:41:42;;;;;;;4.25;2.95;;;;;;;;;;5020617;28;20127;-70
2023/01/11 03:44:11;;;;;;;7.50;3.65;;;;;;;;;;5022004;28;20053;-69
2023/01/11 03:46:56;;;;;;;5.57;3.08;;;;;;;;;;5037206;28;20103;-70
2023/01/11 03:49:39;;;;;;;3.10;1.95;;;;;;;;;;5018581;28;20045;-69
2023/01/11 03:52:07;;;;;;;2.42;2.20;;;;;;;;;;5020980;28;20398;-70
2023/01/11 03:54:33;;;;;;;3.72;2.40;;;;;;;;;;5021734;28;20099;-69
2023/01/11 03:57:11;;;;;;;3.67;2.95;;;;;;;;;;5021497;28;20128;-70
2023/01/11 03:59:38;;;;;;;3.53;2.90;;;;;;;;;;5020334;28;20049;-70
2023/01/11 04:02:04;;;;;;;9.35;3.55;;;;;;;;;;5016885;28;20065;-69
2023/01/11 04:04:29;;;;;;;2.97;2.63;;;;;;;;;;5021700;28;20045;-69
2023/01/11 04:06:54;;;;;;;1.88;1.58;;;;;;;;;;5021394;28;20053;-69
2023/01/11 04:09:20;;;;;;;6.55;3.40;;;;;;;;;;5020171;28;20153;-69
2023/01/11 04:11:45;;;;;;;4.00;3.10;;;;;;;;;;5018595;28;20057;-69
2023/01/11 04:14:11;;;;;;;3.72;3.33;;;;;;;;;;5021279;28;20429;-67
2023/01/11 04:16:36;;;;;;;4.75;3.15;;;;;;;;;;5021353;28;20048;-69
2023/01/11 04:19:02;;;;;;;3.63;3.15;;;;;;;;;;5021258;28;20168;-67
2023/01/11 04:21:28;;;;;;;4.32;3.13;;;;;;;;;;5019270;28;20041;-67
2023/01/11 04:23:53;;;;;;;4.38;3.33;;;;;;;;;;5021059;28;21087;-67
2023/01/11 04:26:19;;;;;;;3.60;3.03;;;;;;;;;;5021082;28;20136;-67
2023/01/11 04:28:44;;;;;;;5.18;3.22;;;;;;;;;;5021112;28;20513;-66
2023/01/11 04:31:10;;;;;;;5.45;2.90;;;;;;;;;;5020615;28;20510;-66
2023/01/11 04:33:35;;;;;;;3.85;2.90;;;;;;;;;;5019519;28;20663;-67
2023/01/11 04:36:06;;;;;;;4.78;3.17;;;;;;;;;;5021256;28;21062;-67
2023/01/11 04:38:32;;;;;;;3.80;2.88;;;;;;;;;;5020828;28;20049;-67
2023/01/11 04:42:17;;;;;;;4.10;2.67;;;;;;;;;;5020266;28;20501;-67
2023/01/11 04:43:42;;;;;;;4.53;2.47;;;;;;;;;;5018004;28;20054;-67
2023/01/11 04:46:09;;;;;;;5.13;2.60;;;;;;;;;;5020299;28;20045;-67
2023/01/11 04:48:39;;;;;;;4.28;2.78;;;;;;;;;;5020704;28;20072;-67
2023/01/11 04:51:08;;;;;;;4.72;3.17;;;;;;;;;;5020405;28;20140;-69
2023/01/11 04:53:34;;;;;;;5.47;3.47;;;;;;;;;;5017480;28;20126;-67
2023/01/11 04:56:01;;;;;;;14.65;3.40;;;;;;;;;;5020550;28;20104;-67
2023/01/11 04:58:29;;;;;;;5.18;2.90;;;;;;;;;;5020337;28;20053;-67
2023/01/11 05:00:54;;;;;;;3.97;2.80;;;;;;;;;;5019999;28;20057;-67
2023/01/11 05:03:20;;;;;;;3.97;2.97;;;;;;;;;;5019513;28;20060;-70
2023/01/11 05:05:54;;;;;;;3.55;2.65;;;;;;;;;;5019095;28;20045;-70
2023/01/11 05:08:20;;;;;;;3.90;2.67;;;;;;;;;;5035082;28;20972;-69
2023/01/11 05:10:54;;;;;;;6.28;3.03;;;;;;;;;;5020170;28;20505;-70
2023/01/11 05:13:20;;;;;;;4.57;3.00;;;;;;;;;;5018379;28;20060;-70
2023/01/11 05:15:46;;;;;;;4.20;3.10;;;;;;;;;;5018778;28;20045;-70
2023/01/11 05:18:11;;;;;;;4.68;3.13;;;;;;;;;;5019534;28;20469;-70
2023/01/11 05:20:36;;;;;;;4.53;3.38;;;;;;;;;;5020328;28;20069;-70
2023/01/11 05:23:02;;;;;;;3.65;3.28;;;;;;;;;;5019501;28;20061;-70
2023/01/11 05:25:27;;;;;;;6.75;4.03;;;;;;;;;;5019464;28;20049;-70
2023/01/11 05:27:53;;;;;;;6.45;4.43;;;;;;;;;;5019418;28;20053;-74
2023/01/11 05:30:18;;;;;;;4.95;3.80;;;;;;;;;;5020208;28;20045;-71
2023/01/11 05:32:43;;;;;;;7.53;3.95;;;;;;;;;;5019300;28;20033;-70
2023/01/11 05:35:10;;;;;;;8.07;3.50;;;;;;;;;;5034914;28;20497;-71
2023/01/11 05:37:36;;;;;;;5.47;3.17;;;;;;;;;;5034183;28;20053;-71
2023/01/11 05:40:03;;;;;;;4.05;2.85;;;;;;;;;;5019149;28;20437;-72
2023/01/11 05:42:28;;;;;;;5.45;3.30;;;;;;;;;;5018637;28;20049;-71
2023/01/11 05:47:38;;;;;;;4.03;2.75;;;;;;;;;;5020395;28;20045;-71
2023/01/11 05:50:04;;;;;;;3.40;2.92;;;;;;;;;;5033681;28;20494;-72
2023/01/11 05:52:29;;;;;;;4.40;3.17;;;;;;;;;;5019623;28;20398;-71
2023/01/11 05:54:54;;;;;;;4.28;3.30;;;;;;;;;;5023663;28;20493;-72
2023/01/11 05:57:20;;;;;;;9.32;4.00;;;;;;;;;;5023626;28;20045;-71
2023/01/11 05:59:45;;;;;;;10.35;3.75;;;;;;;;;;5036780;28;20050;-71
2023/01/11 06:02:11;;;;;;;5.45;3.47;;;;;;;;;;5019884;28;20406;-71
2023/01/11 06:04:36;;;;;;;5.35;2.90;;;;;;;;;;5021571;28;20407;-70
2023/01/11 06:07:01;;;;;;;4.45;3.00;;;;;;;;;;5020224;28;20147;-71
2023/01/11 06:09:27;;;;;;;3.28;2.92;;;;;;;;;;5020117;28;20049;-71
2023/01/11 06:11:52;;;;;;;5.30;3.15;;;;;;;;;;5035735;28;20041;-71
2023/01/11 06:14:17;;;;;;;4.40;3.25;;;;;;;;;;5021096;28;20055;-72
2023/01/11 06:16:43;;;;;;;6.15;3.40;;;;;;;;;;5022758;28;20067;-70
2023/01/11 06:19:10;;;;;;;4.10;3.20;;;;;;;;;;5023169;28;20802;-69
2023/01/11 06:21:35;;;;;;;5.57;3.03;;;;;;;;;;5020684;28;20049;-71
2023/01/11 06:24:01;;;;;;;5.47;3.28;;;;;;;;;;5021585;28;20088;-71
2023/01/11 06:26:26;;;;;;;3.78;3.28;;;;;;;;;;5037232;28;20052;-71
2023/01/11 06:28:52;;;;;;;5.60;3.83;;;;;;;;;;5021767;28;20049;-71
2023/01/11 06:31:18;;;;;;;5.85;3.63;;;;;;;;;;5036168;28;20103;-71
2023/01/11 06:33:44;;;;;;;4.95;3.30;;;;;;;;;;5019722;28;20041;-71
2023/01/11 06:36:11;;;;;;;6.53;4.32;;;;;;;;;;5021874;28;20578;-71
2023/01/11 06:38:36;;;;;;;7.28;3.78;;;;;;;;;;5022887;28;20105;-71
2023/01/11 06:41:04;;;;;;;4.55;3.50;;;;;;;;;;5023070;28;20085;-71
2023/01/11 06:43:31;;;;;;;5.88;3.53;;;;;;;;;;5035738;28;20053;-71
2023/01/11 06:45:57;;;;;;;4.78;3.17;;;;;;;;;;5022896;28;20049;-71
2023/01/11 06:48:23;;;;;;;4.50;3.40;;;;;;;;;;5022760;28;20049;-71
2023/01/11 06:50:51;;;;;;;4.80;3.55;;;;;;;;;;5021736;28;20052;-71
2023/01/11 06:53:16;;;;;;;5.60;3.78;;;;;;;;;;5020723;28;20045;-71
2023/01/11 06:55:42;;;;;;;6.22;3.33;;;;;;;;;;5018788;28;20041;-72
2023/01/11 06:58:07;;;;;;;5.25;3.45;;;;;;;;;;5021604;28;20107;-71
2023/01/11 07:00:33;;;;;;;7.60;3.13;;;;;;;;;;5036803;28;20049;-71
2023/01/11 07:03:03;;;;;;;6.60;3.25;;;;;;;;;;5021998;28;20049;-71
2023/01/11 07:05:29;;;;;;;8.05;3.83;;;;;;;;;;5020019;28;20049;-71
2023/01/11 07:07:54;;;;;;;6.50;3.80;;;;;;;;;;5022600;28;20053;-72
2023/01/11 07:10:20;;;;;;;8.27;3.97;;;;;;;;;;5037663;28;20053;-71
2023/01/11 07:12:45;;;;;;;4.75;3.95;;;;;;;;;;5021844;28;20153;-71
2023/01/11 07:15:10;;;;;;;5.85;3.50;;;;;;;;;;5022790;28;20518;-71
2023/01/11 07:17:36;;;;;;;5.85;3.30;;;;;;;;;;5021304;28;20060;-70
2023/01/11 07:20:03;;;;;;;6.00;3.33;;;;;;;;;;5022535;28;20079;-69
2023/01/11 07:22:29;;;;;;;6.05;3.53;;;;;;;;;;5021301;28;20132;-70
2023/01/11 07:24:54;;;;;;;4.55;3.03;;;;;;;;;;5022630;28;20141;-69
2023/01/11 07:27:19;;;;;;;4.72;3.08;;;;;;;;;;5020139;28;20486;-70
2023/01/11 07:29:45;;;;;;;4.57;2.80;;;;;;;;;;5011501;28;20053;-70
2023/01/11 07:32:11;;;;;;;3.15;2.60;;;;;;;;;;5019233;28;20071;-71
2023/01/11 07:34:37;;;;;;;4.68;2.85;;;;;;;;;;5021056;28;20503;-69
2023/01/11 07:37:03;;;;;;;6.18;2.95;;;;;;;;;;5022083;28;20103;-70
2023/01/11 07:39:28;;;;;;;3.58;2.70;;;;;;;;;;5019380;28;20048;-70
2023/01/11 07:44:37;;;;;;;3.97;1.95;;;;;;;;;;5022518;28;20041;-70
2023/01/11 07:47:03;;;;;;;2.72;2.17;;;;;;;;;;5024454;28;20052;-70
2023/01/11 07:49:28;;;;;;;3.45;2.20;;;;;;;;;;5021114;28;20390;-71
2023/01/11 07:51:54;;;;;;;3.65;2.50;;;;;;;;;;5021257;28;20502;-70
2023/01/11 07:54:19;;;;;;;4.57;2.20;;;;;;;;;;5020825;28;20081;-69
2023/01/11 07:56:45;;;;;;;3.50;2.30;;;;;;;;;;5021622;28;20051;-69
2023/01/11 07:59:10;;;;;;;2.47;1.98;;;;;;;;;;5020625;28;20133;-69
2023/01/11 08:01:36;;;;;;;4.15;2.33;;;;;;;;;;5021558;28;20494;-69
2023/01/11 08:04:02;;;;;;;3.47;2.10;;;;;;;;;;5020746;28;20129;-70
2023/01/11 08:06:28;;;;;;;5.28;2.70;;;;;;;;;;5020242;28;20521;-70
2023/01/11 08:08:53;;;;;;;3.10;2.13;;;;;;;;;;5021493;28;20045;-70
2023/01/11 08:16:46;;;;;;;4.20;2.38;;;;;;;;;;5020367;28;20402;-70
2023/01/11 08:19:12;;;;;;;2.80;2.30;;;;;;;;;;5019906;28;20529;-70
2023/01/11 08:21:37;;;;;;;3.33;2.53;;;;;;;;;;5019952;28;20128;-70
2023/01/11 08:24:03;;;;;;;3.47;2.10;;;;;;;;;;5019562;28;20044;-70
2023/01/11 08:26:28;;;;;;;3.13;2.30;;;;;;;;;;5020124;28;20041;-70
2023/01/11 08:28:54;;;;;;;6.35;2.40;;;;;;;;;;5021082;28;20411;-70
2023/01/11 08:31:20;;;;;;;5.15;2.33;;;;;;;;;;5019694;28;20513;-70
2023/01/11 08:33:47;;;;;;;3.45;2.28;;;;;;;;;;5019163;28;20069;-70
2023/01/11 08:36:13;;;;;;;2.28;2.08;;;;;;;;;;5017763;28;20522;-70
2023/01/11 08:38:38;;;;;;;3.03;2.13;;;;;;;;;;5035858;28;20049;-71
2023/01/11 08:41:09;;;;;;;3.67;2.10;;;;;;;;;;5020830;28;20057;-70
2023/01/11 08:43:38;;;;;;;3.22;2.13;;;;;;;;;;5019715;28;20050;-70
2023/01/11 08:46:04;;;;;;;4.53;2.10;;;;;;;;;;5018629;28;20059;-70
2023/01/11 08:48:30;;;;;;;3.97;2.03;;;;;;;;;;5022044;28;20052;-70
2023/01/11 08:50:55;;;;;;;4.45;2.30;;;;;;;;;;5020963;28;20049;-70
2023/01/11 08:53:20;;;;;;;3.67;2.97;;;;;;;;;;5018806;28;20171;-71
2023/01/11 08:55:50;;;;;;;4.10;2.67;;;;;;;;;;5018883;28;20053;-70
2023/01/11 08:58:16;;;;;;;3.75;2.72;;;;;;;;;;5020045;28;20324;-71
2023/01/11 09:00:42;;;;;;;5.15;2.85;;;;;;;;;;5020820;28;21097;-72
2023/01/11 09:03:07;;;;;;;4.43;2.30;;;;;;;;;;5020213;28;20056;-71
2023/01/11 09:05:33;;;;;;;4.18;2.58;;;;;;;;;;5018773;28;20049;-72
2023/01/11 09:07:59;;;;;;;3.85;2.70;;;;;;;;;;5035166;28;20054;-72
2023/01/11 09:10:25;;;;;;;4.35;2.70;;;;;;;;;;5019714;28;20110;-72
2023/01/11 09:12:55;;;;;;;4.00;2.70;;;;;;;;;;5034663;28;20522;-72
2023/01/11 09:15:21;;;;;;;3.63;2.70;;;;;;;;;;5018695;28;20049;-72
2023/01/11 09:17:46;;;;;;;7.15;2.83;;;;;;;;;;5019291;28;20049;-72
2023/01/11 09:20:12;;;;;;;4.40;2.60;;;;;;;;;;5018973;28;20055;-72
2023/01/11 09:22:38;;;;;;;4.65;2.35;;;;;;;;;;5019561;28;20045;-71
2023/01/11 09:25:04;;;;;;;4.45;2.40;;;;;;;;;;5019344;28;20072;-71
2023/01/11 09:27:30;;;;;;;4.63;2.45;;;;;;;;;;5034872;28;20099;-71
2023/01/11 09:29:55;;;;;;;3.38;2.50;;;;;;;;;;5022659;28;20049;-70
2023/01/11 09:32:21;;;;;;;3.22;2.38;;;;;;;;;;5038684;28;20071;-71
2023/01/11 09:34:48;;;;;;;3.25;2.50;;;;;;;;;;5022611;28;20072;-70
2023/01/11 09:37:14;;;;;;;4.38;2.75;;;;;;;;;;5024142;28;20042;-69
2023/01/11 09:39:40;;;;;;;4.43;3.35;;;;;;;;;;5022223;28;20120;-70
2023/01/11 09:42:15;;;;;;;4.13;3.00;;;;;;;;;;5023234;28;20485;-71
2023/01/11 09:44:48;;;;;;;2.95;2.42;;;;;;;;;;5022509;28;20048;-71
2023/01/11 09:47:20;;;;;;;6.45;3.22;;;;;;;;;;5023817;28;20061;-70
2023/01/11 09:49:54;;;;;;;6.53;3.58;;;;;;;;;;5054271;28;20111;-70
2023/01/11 09:52:38;;;;;;;3.67;2.33;;;;;;;;;;5021908;28;20521;-69
2023/01/11 09:55:04;;;;;;;6.70;4.00;;;;;;;;;;5022215;28;20042;-70
2023/01/11 09:57:50;;;;;;;3.38;2.92;;;;;;;;;;5038315;28;20045;-69
2023/01/11 10:00:35;;;;;;;6.38;3.85;;;;;;;;;;5023463;28;20073;-70
2023/01/11 10:03:47;;;;;;;5.40;3.28;;;;;;;;;;5022402;28;21070;-70
2023/01/11 10:06:32;;;;;;;3.95;3.05;;;;;;;;;;5012624;28;20049;-71
2023/01/11 10:09:21;;;;;;;3.90;2.90;;;;;;;;;;5023568;28;20053;-71
2023/01/11 10:12:03;;;;;;;6.05;3.10;;;;;;;;;;5053315;28;20061;-71
2023/01/11 10:15:08;;;;;;;2.58;2.30;;;;;;;;;;5037180;28;20740;-71
2023/01/11 10:18:12;;;;;;;2.00;1.73;;;;;;;;;;5009833;28;20045;-71
2023/01/11 10:20:46;;;;;;;3.25;1.92;;;;;;;;;;5023729;28;20041;-71
2023/01/11 10:23:11;;;;;;;1.55;1.45;;;;;;;;;;5021751;28;20483;-71
2023/01/11 10:25:49;;;;;;;3.05;1.50;;;;;;;;;;5021871;28;20049;-70
2023/01/11 10:28:30;;;;;;;2.42;1.95;;;;;;;;;;5023097;28;20064;-70
2023/01/11 10:39:20;;;;;;;3.25;2.10;;;;;;;;;;5021941;28;20049;-70
2023/01/11 10:42:04;;;;;;;2.78;2.10;;;;;;;;;;5060805;28;20480;-70
2023/01/11 10:44:53;;;;;;;5.65;2.22;;;;;;;;;;5022281;28;20732;-70
2023/01/11 10:47:22;;;;;;;2.70;2.00;;;;;;;;;;5020341;28;20068;-70
2023/01/11 10:50:14;;;;;;;6.03;2.30;;;;;;;;;;5023129;28;20033;-70
2023/01/11 10:53:02;;;;;;;3.03;2.33;;;;;;;;;;5022250;28;20099;-70
2023/01/11 10:55:44;;;;;;;3.00;2.63;;;;;;;;;;5021169;28;20391;-72
2023/01/11 10:58:18;;;;;;;4.45;2.60;;;;;;;;;;5021349;28;20081;-71
2023/01/11 11:00:53;;;;;;;5.28;2.88;;;;;;;;;;5022688;28;20464;-71
2023/01/11 11:03:38;;;;;;;5.07;2.70;;;;;;;;;;5036593;28;20041;-71
2023/01/11 11:06:16;;;;;;;6.28;2.45;;;;;;;;;;5021717;28;20521;-70
2023/01/11 11:09:06;;;;;;;7.30;2.75;;;;;;;;;;5020675;28;20049;-70
2023/01/11 11:11:39;;;;;;;5.45;2.80;;;;;;;;;;5021842;28;20076;-70
2023/01/11 11:14:14;;;;;;;4.60;3.05;;;;;;;;;;5022127;28;20107;-69
2023/01/11 11:17:11;;;;;;;4.93;3.17;;;;;;;;;;5022084;28;20049;-71
2023/01/11 11:19:37;;;;;;;4.68;2.90;;;;;;;;;;5018815;28;20049;-72
2023/01/11 11:22:02;;;;;;;5.43;2.63;;;;;;;;;;5022169;28;20103;-70
2023/01/11 11:24:42;;;;;;;5.35;2.60;;;;;;;;;;5020925;28;20045;-71
2023/01/11 11:27:27;;;;;;;6.60;2.70;;;;;;;;;;5022086;28;20053;-70
2023/01/11 11:29:55;;;;;;;7.18;2.70;;;;;;;;;;5049747;28;20114;-71
2023/01/11 11:32:35;;;;;;;4.15;2.35;;;;;;;;;;5021078;28;20053;-71
2023/01/11 11:35:01;;;;;;;2.85;2.03;;;;;;;;;;5021466;28;20115;-70
2023/01/11 11:37:32;;;;;;;2.85;1.80;;;;;;;;;;5020954;28;20634;-71
2023/01/11 11:39:58;;;;;;;3.05;1.88;;;;;;;;;;5020918;28;20100;-70
2023/01/11 11:42:24;;;;;;;3.67;2.10;;;;;;;;;;5023744;28;20053;-71
2023/01/11 11:45:19;;;;;;;5.15;2.60;;;;;;;;;;5020936;28;20076;-70
2023/01/11 11:47:59;;;;;;;3.08;1.98;;;;;;;;;;5016177;28;20944;-70
2023/01/11 11:50:25;;;;;;;6.65;2.28;;;;;;;;;;5020363;28;20062;-70
2023/01/11 11:52:55;;;;;;;3.05;2.38;;;;;;;;;;5019858;28;20037;-70
2023/01/11 11:55:27;;;;;;;3.03;2.03;;;;;;;;;;5020184;28;20056;-71
2023/01/11 11:57:54;;;;;;;2.00;1.73;;;;;;;;;;5021232;28;20056;-70
2023/01/11 12:00:38;;;;;;;3.20;2.38;;;;;;;;;;5021529;28;20064;-71
2023/01/11 12:03:17;;;;;;;1.52;1.30;;;;;;;;;;5035151;28;20057;-72
2023/01/11 12:05:56;;;;;;;2.15;1.33;;;;;;;;;;5019924;28;20130;-72
2023/01/11 12:08:25;;;;;;;2.55;1.80;;;;;;;;;;5021216;28;20081;-72
2023/01/11 12:10:58;;;;;;;2.80;1.52;;;;;;;;;;5021194;28;20044;-71
2023/01/11 12:13:33;;;;;;;2.08;1.50;;;;;;;;;;5018898;28;20041;-72
2023/01/11 12:16:04;;;;;;;2.15;1.40;;;;;;;;;;5020556;28;20045;-71
2023/01/11 12:18:40;;;;;;;1.48;1.30;;;;;;;;;;5021426;28;20053;-71
2023/01/11 12:21:17;;;;;;;2.35;1.20;;;;;;;;;;5020753;28;20053;-71
2023/01/11 12:23:43;;;;;;;2.20;1.70;;;;;;;;;;5019302;28;20052;-71
2023/01/11 12:26:36;;;;;;;2.53;1.58;;;;;;;;;;5019373;28;20426;-70
2023/01/11 12:29:22;;;;;;;3.53;1.80;;;;;;;;;;5021153;28;20115;-71
2023/01/11 12:32:20;;;;;;;3.10;1.80;;;;;;;;;;5050339;28;20053;-71
2023/01/11 12:35:36;;;;;;;3.55;2.13;;;;;;;;;;5019892;28;20524;-71
2023/01/11 12:38:51;;;;;;;4.22;2.15;;;;;;;;;;5007617;28;20503;-72
2023/01/11 12:41:54;;;;;;;5.40;2.10;;;;;;;;;;4971477;28;20543;-72
2023/01/11 12:44:46;;;;;;;4.72;1.90;;;;;;;;;;4983896;28;20131;-72
2023/01/11 12:47:17;;;;;;;5.50;1.83;;;;;;;;;;5010541;28;20045;-71
2023/01/11 12:49:57;;;;;;;2.22;1.80;;;;;;;;;;5016277;28;20041;-72
2023/01/11 12:52:25;;;;;;;8.48;3.78;;;;;;;;;;5015540;28;20537;-72
2023/01/11 12:55:25;;;;;;;2.38;1.88;;;;;;;;;;5015770;28;20123;-72
2023/01/11 12:58:07;;;;;;;4.60;1.58;;;;;;;;;;5015896;28;20048;-72
2023/01/11 13:00:47;;;;;;;4.00;1.80;;;;;;;;;;5018821;28;20041;-72
2023/01/11 13:03:22;;;;;;;2.45;1.88;;;;;;;;;;5018239;28;20064;-72
2023/01/11 13:06:00;;;;;;;4.57;1.73;;;;;;;;;;5027917;28;20056;-72
2023/01/11 13:08:39;;;;;;;5.53;1.98;;;;;;;;;;5019051;28;20047;-71
2023/01/11 13:11:35;;;;;;;4.60;1.77;;;;;;;;;;5018866;28;20048;-71
2023/01/11 13:14:35;;;;;;;2.75;1.85;;;;;;;;;;5027194;28;20742;-72
2023/01/11 13:17:21;;;;;;;3.60;1.98;;;;;;;;;;5019648;28;20124;-72
2023/01/11 13:20:08;;;;;;;2.95;1.50;;;;;;;;;;5016689;28;20114;-72
2023/01/11 13:22:41;;;;;;;3.97;1.88;;;;;;;;;;5017667;28;20065;-72
2023/01/11 13:25:17;;;;;;;4.95;1.70;;;;;;;;;;5032277;28;20517;-73
2023/01/11 13:27:44;;;;;;;2.22;1.65;;;;;;;;;;5017276;28;20041;-73
2023/01/11 13:30:12;;;;;;;2.10;1.70;;;;;;;;;;5031732;28;20088;-73
2023/01/11 13:32:39;;;;;;;1.50;1.30;;;;;;;;;;5016591;28;20069;-72
2023/01/11 13:35:38;;;;;;;2.65;1.85;;;;;;;;;;5018242;28;20041;-72
2023/01/11 13:38:30;;;;;;;4.38;1.90;;;;;;;;;;5032076;28;20045;-72
2023/01/11 13:41:10;;;;;;;2.03;1.63;;;;;;;;;;5017349;28;20065;-72
2023/01/11 13:44:13;;;;;;;3.22;2.00;;;;;;;;;;5018096;28;20040;-73
2023/01/11 13:46:53;;;;;;;4.55;2.10;;;;;;;;;;5014769;28;20427;-69
2023/01/11 13:49:37;;;;;;;5.07;2.45;;;;;;;;;;5019023;28;20056;-71
2023/01/11 13:52:11;;;;;;;6.20;3.20;;;;;;;;;;5019756;28;20061;-71
2023/01/11 13:54:44;;;;;;;3.20;2.42;;;;;;;;;;5017839;28;20052;-71
2023/01/11 13:57:18;;;;;;;3.58;2.15;;;;;;;;;;5018618;28;20041;-72
2023/01/11 13:59:48;;;;;;;2.72;1.98;;;;;;;;;;5018131;28;20037;-71
2023/01/11 14:02:29;;;;;;;3.42;2.22;;;;;;;;;;5016378;28;20049;-71
2023/01/11 14:05:03;;;;;;;5.03;2.15;;;;;;;;;;5017533;28;20127;-72
2023/01/11 14:08:05;;;;;;;2.97;2.40;;;;;;;;;;5017457;28;20042;-72
2023/01/11 14:10:39;;;;;;;5.75;2.47;;;;;;;;;;5019130;28;20045;-70
2023/01/11 14:16:22;;;;;;;;;;;;;;;;;;5047546;28;20144;-72
2023/01/11 14:18:57;;;;;;;3.42;2.28;;;;;;;;;;5022938;28;19921;-71
2023/01/11 14:21:41;;;;;;;4.93;2.83;;;;;;;;;;5022715;28;20061;-72
2023/01/11 14:24:09;;;;;;;3.80;2.40;;;;;;;;;;5022426;28;20044;-71
2023/01/11 14:26:54;;;;;;;6.10;2.33;;;;;;;;;;5021441;28;20072;-71
2023/01/11 14:29:42;;;;;;;3.05;2.55;;;;;;;;;;5025056;28;20045;-73
2023/01/11 14:32:28;;;;;;;3.08;1.80;;;;;;;;;;5022285;28;20486;-72
2023/01/11 14:34:57;;;;;;;4.32;2.47;;;;;;;;;;5019338;28;20053;-71
2023/01/11 14:37:42;;;;;;;3.40;2.42;;;;;;;;;;5016136;28;20072;-71
2023/01/11 14:40:35;;;;;;;4.28;2.35;;;;;;;;;;5022007;28;20057;-71
2023/01/11 14:43:39;;;;;;;4.50;3.10;;;;;;;;;;5040530;28;20521;-70
2023/01/11 14:46:38;;;;;;;5.82;2.78;;;;;;;;;;5005593;28;20041;-71
2023/01/11 14:49:21;;;;;;;4.25;2.65;;;;;;;;;;5018582;28;20540;-71
2023/01/11 14:52:31;;;;;;;3.40;2.80;;;;;;;;;;5016448;28;20049;-72
2023/01/11 14:54:59;;;;;;;4.18;3.13;;;;;;;;;;4968238;28;20524;-71
2023/01/11 14:58:08;;;;;;;9.98;3.50;;;;;;;;;;5009234;28;20103;-71
2023/01/11 15:00:33;;;;;;;4.95;2.72;;;;;;;;;;5010562;28;20250;-70
2023/01/11 15:02:58;;;;;;;4.40;2.50;;;;;;;;;;5017142;28;20619;-71
2023/01/11 15:05:31;;;;;;;6.35;2.58;;;;;;;;;;5016461;28;20148;-71
2023/01/11 15:08:12;;;;;;;2.75;2.47;;;;;;;;;;5020791;28;20045;-71
2023/01/11 15:10:43;;;;;;;5.07;2.33;;;;;;;;;;5017370;28;20081;-70
2023/01/11 15:13:14;;;;;;;3.75;2.10;;;;;;;;;;5020126;28;20528;-70
2023/01/11 15:18:45;;;;;;;3.10;2.15;;;;;;;;;;5035116;28;20049;-70
2023/01/11 15:21:17;;;;;;;2.97;1.70;;;;;;;;;;5020654;28;20041;-70
2023/01/11 15:23:49;;;;;;;4.88;1.80;;;;;;;;;;5023091;28;20044;-70
2023/01/11 15:26:17;;;;;;;2.00;1.80;;;;;;;;;;5022222;28;20057;-70
2023/01/11 15:28:53;;;;;;;4.57;1.90;;;;;;;;;;5020422;28;20114;-71
2023/01/11 15:32:07;;;;;;;3.72;1.63;;;;;;;;;;5017408;28;20050;-72
2023/01/11 15:34:38;;;;;;;9.18;2.97;;;;;;;;;;5014688;28;20128;-71
2023/01/11 15:37:06;;;;;;;4.17;2.43;;;;;;;;;;5022413;28;20138;-70
2023/01/11 15:39:47;;;;;;;6.85;3.42;;;;;;;;;;5020659;28;20382;-70
2023/01/11 15:42:12;;;;;;;1.17;0.80;;;;;;;;;;5025138;28;20049;-70
2023/01/11 15:44:59;;;;;;;0.93;0.63;;;;;;;;;;5026487;28;20658;-70
2023/01/11 15:48:05;;;;;;;2.05;0.98;;;;;;;;;;5025490;28;20045;-70
2023/01/11 15:51:00;;;;;;;0.60;0.50;;;;;;;;;;5025980;28;20056;-69
2023/01/11 15:53:53;;;;;;;1.10;0.70;;;;;;;;;;5021957;28;20053;-71
2023/01/11 15:56:56;;;;;;;1.52;0.80;;;;;;;;;;5020199;28;20592;-71
2023/01/11 15:59:40;;;;;;;6.97;0.30;;;;;;;;;;5020133;28;20076;-72